Time,TemperatureF,DewpointF,PressureIn,WindDirection,WindDirectionDegrees,WindSpeedMPH,WindSpeedGustMPH,Humidity,HourlyPrecipIn,Conditions,Clouds,dailyrainin,SoftwareType,DateUTC
2013-01-02 00:00:00,34.0,28.8,30.16,NNW,330,0.0,0.0,81,0.00,,,0.00,Wunderground v.1.15,2013-01-02 08:00:00,
2013-01-02 00:10:00,34.0,28.8,30.16,NNW,330,0.0,0.0,81,0.00,,,0.00,Wunderground v.1.15,2013-01-02 08:10:00,
2013-01-02 00:20:00,34.1,29.2,30.17,NNW,330,0.0,0.0,82,0.00,,,0.00,Wunderground v.1.15,2013-01-02 08:20:00,
2013-01-02 00:30:00,34.0,29.1,30.17,NNW,330,0.0,0.0,82,0.00,,,0.00,Wunderground v.1.15,2013-01-02 08:30:00,
2013-01-02 00:40:00,33.8,28.9,30.17,NNW,330,0.0,0.0,82,0.00,,,0.00,Wunderground v.1.15,2013-01-02 08:40:00,
2013-01-02 00:50:00,33.7,28.8,30.17,NNW,330,0.0,0.0,82,0.00,,,0.00,Wunderground v.1.15,2013-01-02 08:50:00,
2013-01-02 01:01:00,33.4,28.2,30.17,NNW,330,0.0,0.0,81,0.00,,,0.00,Wunderground v.1.15,2013-01-02 09:01:00,
2013-01-02 01:10:00,33.2,28.0,30.17,NNW,330,0.0,0.0,81,0.00,,,0.00,Wunderground v.1.15,2013-01-02 09:10:00,
2013-01-02 01:20:00,32.9,27.7,30.17,NNW,330,0.0,0.0,81,0.00,,,0.00,Wunderground v.1.15,2013-01-02 09:20:00,
2013-01-02 01:30:00,32.7,27.5,30.17,NNW,330,0.0,0.0,81,0.00,,,0.00,Wunderground v.1.15,2013-01-02 09:30:00,
2013-01-02 01:40:00,32.5,27.3,30.17,NNW,330,0.0,0.0,81,0.00,,,0.00,Wunderground v.1.15,2013-01-02 09:40:00,
2013-01-02 01:50:00,32.5,27.3,30.17,NNW,330,0.0,0.0,81,0.00,,,0.00,Wunderground v.1.15,2013-01-02 09:50:00,
2013-01-02 02:01:00,32.5,27.6,30.17,NNW,330,0.0,0.0,82,0.00,,,0.00,Wunderground v.1.15,2013-01-02 10:01:00,
2013-01-02 02:10:00,32.5,27.6,30.17,NNW,330,0.0,0.0,82,0.00,,,0.00,Wunderground v.1.15,2013-01-02 10:10:00,
2013-01-02 02:20:00,32.4,27.5,30.17,NNW,330,0.0,0.0,82,0.00,,,0.00,Wunderground v.1.15,2013-01-02 10:20:00,
2013-01-02 02:30:00,32.2,27.3,30.16,NNW,330,0.0,0.0,82,0.00,,,0.00,Wunderground v.1.15,2013-01-02 10:30:00,
2013-01-02 02:40:00,32.2,27.3,30.16,NNW,330,0.0,0.0,82,0.00,,,0.00,Wunderground v.1.15,2013-01-02 10:40:00,
2013-01-02 02:50:00,32.1,27.2,30.16,NNW,330,0.0,0.0,82,0.00,,,0.00,Wunderground v.1.15,2013-01-02 10:50:00,
2013-01-02 03:01:00,31.9,27.0,30.16,NNW,330,0.0,0.0,82,0.00,,,0.00,Wunderground v.1.15,2013-01-02 11:01:00,
2013-01-02 03:10:00,32.2,27.6,30.16,NNW,330,0.0,1.0,83,0.00,,,0.00,Wunderground v.1.15,2013-01-02 11:10:00,
2013-01-02 03:20:00,33.1,28.8,30.15,NNW,330,1.0,1.0,84,0.00,,,0.00,Wunderground v.1.15,2013-01-02 11:20:00,
2013-01-02 03:30:00,33.8,29.8,30.14,NNW,330,1.0,1.0,85,0.00,,,0.00,Wunderground v.1.15,2013-01-02 11:30:00,
2013-01-02 03:40:00,34.3,30.3,30.14,NNW,330,1.0,2.0,85,0.00,,,0.00,Wunderground v.1.15,2013-01-02 11:40:00,
2013-01-02 03:50:00,34.7,30.7,30.14,NNW,330,1.0,1.0,85,0.00,,,0.00,Wunderground v.1.15,2013-01-02 11:50:00,
2013-01-02 04:01:00,35.0,30.9,30.14,NNW,330,0.0,0.0,85,0.00,,,0.00,Wunderground v.1.15,2013-01-02 12:01:00,
2013-01-02 04:10:00,35.2,30.9,30.14,NNW,330,0.0,0.0,84,0.00,,,0.00,Wunderground v.1.15,2013-01-02 12:10:00,
2013-01-02 04:20:00,34.9,30.6,30.14,NNW,330,0.0,0.0,84,0.00,,,0.00,Wunderground v.1.15,2013-01-02 12:20:00,
2013-01-02 04:30:00,34.6,30.3,30.13,NNW,330,0.0,0.0,84,0.00,,,0.00,Wunderground v.1.15,2013-01-02 12:30:00,
2013-01-02 04:40:00,34.1,29.5,30.13,NNW,330,0.0,0.0,83,0.00,,,0.00,Wunderground v.1.15,2013-01-02 12:40:00,
2013-01-02 04:50:00,33.7,29.1,30.13,NNW,330,0.0,0.0,83,0.00,,,0.00,Wunderground v.1.15,2013-01-02 12:50:00,
2013-01-02 05:01:00,33.2,28.3,30.13,NNW,330,0.0,0.0,82,0.00,,,0.00,Wunderground v.1.15,2013-01-02 13:01:00,
2013-01-02 05:10:00,33.1,28.2,30.13,NNW,330,0.0,0.0,82,0.00,,,0.00,Wunderground v.1.15,2013-01-02 13:10:00,
2013-01-02 05:20:00,32.8,27.9,30.13,NNW,330,0.0,0.0,82,0.00,,,0.00,Wunderground v.1.15,2013-01-02 13:20:00,
2013-01-02 05:30:00,32.4,27.5,30.13,NNW,330,0.0,0.0,82,0.00,,,0.00,Wunderground v.1.15,2013-01-02 13:30:00,
2013-01-02 05:40:00,31.5,26.3,30.13,NNW,330,0.0,0.0,81,0.00,,,0.00,Wunderground v.1.15,2013-01-02 13:40:00,
2013-01-02 05:50:00,30.9,25.8,30.13,NNW,330,0.0,0.0,81,0.00,,,0.00,Wunderground v.1.15,2013-01-02 13:50:00,
2013-01-02 06:01:00,30.4,25.3,30.13,NNW,330,0.0,0.0,81,0.00,,,0.00,Wunderground v.1.15,2013-01-02 14:01:00,
2013-01-02 06:10:00,29.8,25.0,30.13,NNW,330,0.0,0.0,82,0.00,,,0.00,Wunderground v.1.15,2013-01-02 14:10:00,
2013-01-02 06:20:00,29.5,24.7,30.13,NNW,330,0.0,0.0,82,0.00,,,0.00,Wunderground v.1.15,2013-01-02 14:20:00,
2013-01-02 06:30:00,29.3,24.5,30.13,NNW,330,0.0,0.0,82,0.00,,,0.00,Wunderground v.1.15,2013-01-02 14:30:00,
2013-01-02 06:40:00,29.1,24.3,30.13,NNW,330,0.0,0.0,82,0.00,,,0.00,Wunderground v.1.15,2013-01-02 14:40:00,
2013-01-02 06:50:00,29.0,24.2,30.13,NNW,330,0.0,0.0,82,0.00,,,0.00,Wunderground v.1.15,2013-01-02 14:50:00,
2013-01-02 07:01:00,28.7,23.9,30.14,NNW,330,0.0,0.0,82,0.00,,,0.00,Wunderground v.1.15,2013-01-02 15:01:00,
2013-01-02 07:10:00,28.5,23.7,30.14,NNW,330,0.0,0.0,82,0.00,,,0.00,Wunderground v.1.15,2013-01-02 15:10:00,
2013-01-02 07:20:00,28.4,23.6,30.15,NNW,330,0.0,0.0,82,0.00,,,0.00,Wunderground v.1.15,2013-01-02 15:20:00,
2013-01-02 07:30:00,28.2,23.4,30.15,NNW,330,0.0,0.0,82,0.00,,,0.00,Wunderground v.1.15,2013-01-02 15:30:00,
2013-01-02 07:40:00,28.2,23.4,30.15,NNW,330,0.0,0.0,82,0.00,,,0.00,Wunderground v.1.15,2013-01-02 15:40:00,
2013-01-02 07:50:00,29.0,24.8,30.15,NNW,330,0.0,0.0,84,0.00,,,0.00,Wunderground v.1.15,2013-01-02 15:50:00,
2013-01-02 08:00:00,30.4,26.4,30.15,NNW,330,0.0,0.0,85,0.00,,,0.00,Wunderground v.1.15,2013-01-02 16:00:00,
2013-01-02 08:10:00,31.3,27.3,30.15,NNW,330,0.0,0.0,85,0.00,,,0.00,Wunderground v.1.15,2013-01-02 16:10:00,
2013-01-02 08:20:00,31.9,28.2,30.15,NNW,330,0.0,0.0,86,0.00,,,0.00,Wunderground v.1.15,2013-01-02 16:20:00,
2013-01-02 08:30:00,32.5,28.5,30.15,NNW,330,0.0,0.0,85,0.00,,,0.00,Wunderground v.1.15,2013-01-02 16:30:00,
2013-01-02 08:40:00,33.5,30.0,30.15,NNW,330,0.0,0.0,87,0.00,,,0.00,Wunderground v.1.15,2013-01-02 16:40:00,
2013-01-02 08:50:00,36.5,32.7,30.16,NNW,330,0.0,0.0,86,0.00,,,0.00,Wunderground v.1.15,2013-01-02 16:50:00,
2013-01-02 09:00:00,38.0,32.4,30.16,NNW,330,0.0,1.0,80,0.00,,,0.00,Wunderground v.1.15,2013-01-02 17:00:00,
2013-01-02 09:10:00,38.8,32.2,30.16,NNW,330,1.0,2.0,77,0.00,,,0.00,Wunderground v.1.15,2013-01-02 17:10:00,
2013-01-02 09:20:00,40.2,32.9,30.16,NNW,330,2.0,2.0,75,0.00,,,0.00,Wunderground v.1.15,2013-01-02 17:20:00,
2013-01-02 09:30:00,42.2,33.5,30.16,NNW,330,1.0,1.0,71,0.00,,,0.00,Wunderground v.1.15,2013-01-02 17:30:00,
2013-01-02 09:40:00,43.5,33.6,30.16,NNW,330,1.0,1.0,68,0.00,,,0.00,Wunderground v.1.15,2013-01-02 17:40:00,
2013-01-02 09:50:00,45.4,34.3,30.17,NNW,330,0.0,0.0,65,0.00,,,0.00,Wunderground v.1.15,2013-01-02 17:50:00,
2013-01-02 10:00:00,47.9,35.9,30.18,NNW,330,0.0,0.0,63,0.00,,,0.00,Wunderground v.1.15,2013-01-02 18:00:00,
2013-01-02 10:10:00,46.4,35.3,30.18,NNW,330,0.0,0.0,65,0.00,,,0.00,Wunderground v.1.15,2013-01-02 18:10:00,
2013-01-02 10:20:00,46.8,35.6,30.18,NNW,330,0.0,0.0,65,0.00,,,0.00,Wunderground v.1.15,2013-01-02 18:20:00,
2013-01-02 10:30:00,47.1,35.9,30.17,NNW,330,0.0,0.0,65,0.00,,,0.00,Wunderground v.1.15,2013-01-02 18:30:00,
2013-01-02 10:40:00,47.9,35.9,30.17,NNW,330,0.0,0.0,63,0.00,,,0.00,Wunderground v.1.15,2013-01-02 18:40:00,
2013-01-02 10:50:00,47.0,35.4,30.17,NNW,330,2.0,2.0,64,0.00,,,0.00,Wunderground v.1.15,2013-01-02 18:50:00,
2013-01-02 11:00:00,47.1,35.5,30.17,NNW,330,2.0,2.0,64,0.00,,,0.00,Wunderground v.1.15,2013-01-02 19:00:00,
2013-01-02 11:10:00,47.3,35.3,30.17,NNW,330,2.0,5.0,63,0.00,,,0.00,Wunderground v.1.15,2013-01-02 19:10:00,
2013-01-02 11:20:00,47.7,34.9,30.16,NNW,330,2.0,2.0,61,0.00,,,0.00,Wunderground v.1.15,2013-01-02 19:20:00,
2013-01-02 11:30:00,48.3,34.2,30.16,NNW,330,2.0,2.0,58,0.00,,,0.00,Wunderground v.1.15,2013-01-02 19:30:00,
2013-01-02 11:40:00,48.9,33.9,30.16,NNW,330,2.0,2.0,56,0.00,,,0.00,Wunderground v.1.15,2013-01-02 19:40:00,
2013-01-02 11:50:00,49.9,35.3,30.15,NNW,330,2.0,2.0,57,0.00,,,0.00,Wunderground v.1.15,2013-01-02 19:50:00,
2013-01-02 12:00:00,49.5,34.4,30.14,NNW,330,2.0,2.0,56,0.00,,,0.00,Wunderground v.1.15,2013-01-02 20:00:00,
2013-01-02 12:10:00,50.5,34.9,30.14,NNW,330,3.0,3.0,55,0.00,,,0.00,Wunderground v.1.15,2013-01-02 20:10:00,
2013-01-02 12:20:00,51.7,36.5,30.13,NNW,330,2.0,2.0,56,0.00,,,0.00,Wunderground v.1.15,2013-01-02 20:20:00,
2013-01-02 12:30:00,50.8,34.3,30.12,NNW,330,2.0,2.0,53,0.00,,,0.00,Wunderground v.1.15,2013-01-02 20:30:00,
2013-01-02 12:40:00,52.9,34.2,30.12,NNW,330,0.0,0.0,49,0.00,,,0.00,Wunderground v.1.15,2013-01-02 20:40:00,
2013-01-02 12:50:00,55.3,35.4,30.12,NNW,330,0.0,0.0,47,0.00,,,0.00,Wunderground v.1.15,2013-01-02 20:50:00,
2013-01-02 13:00:00,53.9,33.6,30.11,NNW,330,1.0,1.0,46,0.00,,,0.00,Wunderground v.1.15,2013-01-02 21:00:00,
2013-01-02 13:10:00,55.1,34.1,30.11,NNW,330,1.0,1.0,45,0.00,,,0.00,Wunderground v.1.15,2013-01-02 21:10:00,
2013-01-02 13:20:00,55.7,32.9,30.10,NNW,330,0.0,0.0,42,0.00,,,0.00,Wunderground v.1.15,2013-01-02 21:20:00,
2013-01-02 13:30:00,55.0,34.0,30.10,NNW,330,0.0,0.0,45,0.00,,,0.00,Wunderground v.1.15,2013-01-02 21:30:00,
2013-01-02 13:40:00,58.0,34.4,30.10,NNW,330,0.0,0.0,41,0.00,,,0.00,Wunderground v.1.15,2013-01-02 21:40:00,
2013-01-02 13:50:00,59.3,33.7,30.10,NNW,330,0.0,0.0,38,0.00,,,0.00,Wunderground v.1.15,2013-01-02 21:50:00,
2013-01-02 14:00:00,56.5,33.1,30.09,NNW,330,1.0,2.0,41,0.00,,,0.00,Wunderground v.1.15,2013-01-02 22:00:00,
2013-01-02 14:10:00,54.4,32.9,30.09,NNW,330,2.0,3.0,44,0.00,,,0.00,Wunderground v.1.15,2013-01-02 22:10:00,
2013-01-02 14:20:00,53.6,31.6,30.09,NNW,330,3.0,5.0,43,0.00,,,0.00,Wunderground v.1.15,2013-01-02 22:20:00,
2013-01-02 14:30:00,53.5,31.0,30.09,NNW,330,3.0,3.0,42,0.00,,,0.00,Wunderground v.1.15,2013-01-02 22:30:00,
2013-01-02 14:40:00,53.6,31.0,30.09,NNW,330,3.0,4.0,42,0.00,,,0.00,Wunderground v.1.15,2013-01-02 22:40:00,
2013-01-02 14:50:00,54.1,30.9,30.09,NNW,330,2.0,3.0,41,0.00,,,0.00,Wunderground v.1.15,2013-01-02 22:50:00,
2013-01-02 15:00:00,54.1,30.9,30.08,NNW,330,3.0,3.0,41,0.00,,,0.00,Wunderground v.1.15,2013-01-02 23:00:00,
2013-01-02 15:10:00,53.8,31.2,30.08,NNW,330,4.0,4.0,42,0.00,,,0.00,Wunderground v.1.15,2013-01-02 23:10:00,
2013-01-02 15:20:00,54.2,31.0,30.08,NNW,330,3.0,3.0,41,0.00,,,0.00,Wunderground v.1.15,2013-01-02 23:20:00,
2013-01-02 15:30:00,53.8,30.6,30.08,NNW,330,3.0,3.0,41,0.00,,,0.00,Wunderground v.1.15,2013-01-02 23:30:00,
2013-01-02 15:40:00,53.8,31.8,30.08,NNW,330,2.0,2.0,43,0.00,,,0.00,Wunderground v.1.15,2013-01-02 23:40:00,
2013-01-02 15:50:00,53.9,30.7,30.08,NNW,330,0.0,1.0,41,0.00,,,0.00,Wunderground v.1.15,2013-01-02 23:50:00,
2013-01-02 16:00:00,53.8,30.6,30.08,NNW,330,0.0,0.0,41,0.00,,,0.00,Wunderground v.1.15,2013-01-03 00:00:00,
2013-01-02 16:10:00,53.5,31.5,30.08,NNW,330,0.0,0.0,43,0.00,,,0.00,Wunderground v.1.15,2013-01-03 00:10:00,
2013-01-02 16:20:00,53.1,32.3,30.07,NNW,330,0.0,0.0,45,0.00,,,0.00,Wunderground v.1.15,2013-01-03 00:20:00,
2013-01-02 16:30:00,53.5,31.0,30.08,NNW,330,0.0,0.0,42,0.00,,,0.00,Wunderground v.1.15,2013-01-03 00:30:00,
2013-01-02 16:40:00,54.7,33.8,30.08,NNW,330,0.0,0.0,45,0.00,,,0.00,Wunderground v.1.15,2013-01-03 00:40:00,
2013-01-02 16:50:00,54.7,32.6,30.08,NNW,330,0.0,0.0,43,0.00,,,0.00,Wunderground v.1.15,2013-01-03 00:50:00,
2013-01-02 17:00:00,53.9,34.1,30.08,NNW,330,0.0,0.0,47,0.00,,,0.00,Wunderground v.1.15,2013-01-03 01:00:00,
2013-01-02 17:10:00,52.8,34.2,30.08,NNW,330,0.0,0.0,49,0.00,,,0.00,Wunderground v.1.15,2013-01-03 01:10:00,
2013-01-02 17:20:00,51.6,34.0,30.08,NNW,330,0.0,0.0,51,0.00,,,0.00,Wunderground v.1.15,2013-01-03 01:20:00,
2013-01-02 17:30:00,50.5,33.5,30.07,NNW,330,0.0,0.0,52,0.00,,,0.00,Wunderground v.1.15,2013-01-03 01:30:00,
2013-01-02 17:40:00,49.8,32.9,30.07,NNW,330,0.0,0.0,52,0.00,,,0.00,Wunderground v.1.15,2013-01-03 01:40:00,
2013-01-02 17:50:00,49.2,32.8,30.07,NNW,330,0.0,0.0,53,0.00,,,0.00,Wunderground v.1.15,2013-01-03 01:50:00,
2013-01-02 18:00:00,48.5,32.1,30.07,NNW,330,0.0,0.0,53,0.00,,,0.00,Wunderground v.1.15,2013-01-03 02:00:00,
2013-01-02 18:10:00,47.7,32.3,30.07,NNW,330,0.0,0.0,55,0.00,,,0.00,Wunderground v.1.15,2013-01-03 02:10:00,
2013-01-02 18:20:00,47.0,31.7,30.08,NNW,330,0.0,0.0,55,0.00,,,0.00,Wunderground v.1.15,2013-01-03 02:20:00,
2013-01-02 18:30:00,46.2,31.8,30.08,NNW,330,0.0,0.0,57,0.00,,,0.00,Wunderground v.1.15,2013-01-03 02:30:00,
2013-01-02 18:40:00,45.4,31.5,30.08,NNW,330,0.0,0.0,58,0.00,,,0.00,Wunderground v.1.15,2013-01-03 02:40:00,
2013-01-02 18:50:00,43.8,31.2,30.08,NNW,330,0.0,0.0,61,0.00,,,0.00,Wunderground v.1.15,2013-01-03 02:50:00,
2013-01-02 19:00:00,42.9,31.2,30.08,NNW,330,0.0,0.0,63,0.00,,,0.00,Wunderground v.1.15,2013-01-03 03:00:00,
2013-01-02 19:10:00,42.2,30.1,30.08,NNW,330,0.0,0.0,62,0.00,,,0.00,Wunderground v.1.15,2013-01-03 03:10:00,
2013-01-02 19:20:00,41.8,30.1,30.08,NNW,330,0.0,0.0,63,0.00,,,0.00,Wunderground v.1.15,2013-01-03 03:20:00,
2013-01-02 19:30:00,41.2,29.9,30.08,NNW,330,0.0,0.0,64,0.00,,,0.00,Wunderground v.1.15,2013-01-03 03:30:00,
2013-01-02 19:50:00,40.2,30.1,30.07,NNW,330,0.0,0.0,67,0.00,,,0.00,Wunderground v.1.15,2013-01-03 03:50:00,
2013-01-02 20:00:00,39.9,30.5,30.07,NNW,330,0.0,0.0,69,0.00,,,0.00,Wunderground v.1.15,2013-01-03 04:00:00,
2013-01-02 20:10:00,39.3,30.3,30.07,NNW,330,0.0,0.0,70,0.00,,,0.00,Wunderground v.1.15,2013-01-03 04:10:00,
2013-01-02 20:20:00,38.5,29.6,30.08,NNW,330,0.0,0.0,70,0.00,,,0.00,Wunderground v.1.15,2013-01-03 04:20:00,
2013-01-02 20:30:00,37.9,29.0,30.09,NNW,330,0.0,0.0,70,0.00,,,0.00,Wunderground v.1.15,2013-01-03 04:30:00,
2013-01-02 20:40:00,37.0,28.5,30.09,NNW,330,0.0,0.0,71,0.00,,,0.00,Wunderground v.1.15,2013-01-03 04:40:00,
2013-01-02 20:50:00,36.6,28.4,30.09,NNW,330,0.0,0.0,72,0.00,,,0.00,Wunderground v.1.15,2013-01-03 04:50:00,
2013-01-02 21:10:00,36.2,29.4,30.09,NNW,330,0.0,0.0,76,0.00,,,0.00,Wunderground v.1.15,2013-01-03 05:10:00,
2013-01-02 21:20:00,35.8,29.3,30.09,NNW,330,0.0,0.0,77,0.00,,,0.00,Wunderground v.1.15,2013-01-03 05:20:00,
2013-01-02 21:30:00,35.8,29.6,30.10,NNW,330,0.0,0.0,78,0.00,,,0.00,Wunderground v.1.15,2013-01-03 05:30:00,
2013-01-02 21:40:00,35.6,29.7,30.10,NNW,330,0.0,0.0,79,0.00,,,0.00,Wunderground v.1.15,2013-01-03 05:40:00,
2013-01-02 21:50:00,35.6,30.0,30.10,NNW,330,0.0,0.0,80,0.00,,,0.00,Wunderground v.1.15,2013-01-03 05:50:00,
2013-01-02 22:00:00,35.5,29.9,30.10,NNW,330,0.0,0.0,80,0.00,,,0.00,Wunderground v.1.15,2013-01-03 06:00:00,
2013-01-02 22:10:00,35.3,29.7,30.10,NNW,330,0.0,0.0,80,0.00,,,0.00,Wunderground v.1.15,2013-01-03 06:10:00,
2013-01-02 22:20:00,35.3,30.1,30.10,NNW,330,0.0,0.0,81,0.00,,,0.00,Wunderground v.1.15,2013-01-03 06:20:00,
2013-01-02 22:30:00,35.3,30.1,30.11,NNW,330,0.0,0.0,81,0.00,,,0.00,Wunderground v.1.15,2013-01-03 06:30:00,
2013-01-02 22:40:00,35.5,30.2,30.11,NNW,330,0.0,0.0,81,0.00,,,0.00,Wunderground v.1.15,2013-01-03 06:40:00,
2013-01-02 22:50:00,35.5,30.5,30.11,NNW,330,0.0,0.0,82,0.00,,,0.00,Wunderground v.1.15,2013-01-03 06:50:00,
2013-01-02 23:00:00,35.3,30.4,30.11,NNW,330,0.0,0.0,82,0.00,,,0.00,Wunderground v.1.15,2013-01-03 07:00:00,
2013-01-02 23:10:00,35.3,30.4,30.11,NNW,330,0.0,0.0,82,0.00,,,0.00,Wunderground v.1.15,2013-01-03 07:10:00,
2013-01-02 23:20:00,35.2,30.3,30.11,NNW,330,0.0,0.0,82,0.00,,,0.00,Wunderground v.1.15,2013-01-03 07:20:00,
2013-01-02 23:30:00,34.7,29.5,30.11,NNW,330,0.0,0.0,81,0.00,,,0.00,Wunderground v.1.15,2013-01-03 07:30:00,
2013-01-02 23:40:00,34.3,29.1,30.11,NNW,330,0.0,0.0,81,0.00,,,0.00,Wunderground v.1.15,2013-01-03 07:40:00,
2013-01-02 23:50:00,33.8,28.6,30.11,NNW,330,0.0,0.0,81,0.00,,,0.00,Wunderground v.1.15,2013-01-03 07:50:00,